Bruneau, Idaho
Current Conditions -  °F | °C
As of 4:58 PM on Friday 19 Dec 2014 (Local Time) from KMUO Reporting Station
Broken Clouds Broken Clouds  
Wind Chill: 30°   Ceiling: 8500
Heat Index: 38°   Visibility: 10mi
Dew Point: 36°   Wind: 13mph
Humidity: 92%   Direction: 100°E
Pressure: 30.06"   Gusts: NA
Location:  42.88°N, 115.8°W
Report Text: KMUO 192358Z AUTO 10011KT 10SM BKN085 03/02 A3006 RMK AO2 SLP192 60014 T00340022 10047 20034 53002
Loading
Personal Weather Stations






























Interactive Weather Map New forecast layout! Learn more

10-Day Weather Forecast

Advertisements
Track Severe Weather on mobile